Time;durP1;ratioP1;P1;durP2;ratioP2;P2;SDS_P1;SDS_P2;PMS_P1;PMS_P2;Temp;Humidity;BMP_temperature;BMP_pressure;BME280_temperature;BME280_humidity;BME280_pressure;Samples;Min_cycle;Max_cycle;Signal;HPM_P1;HPM_P2
2023/07/17 00:01:21;;;;;;;9.93;6.68;;;13.40;99.90;;;;;;4947666;28;20027;-71
2023/07/17 00:03:48;;;;;;;12.65;7.50;;;13.40;99.90;;;;;;4945500;28;20129;-72
2023/07/17 00:06:16;;;;;;;12.25;6.85;;;13.50;99.90;;;;;;4951288;28;20059;-72
2023/07/17 00:08:43;;;;;;;12.55;7.70;;;13.70;99.90;;;;;;4947455;28;20535;-71
2023/07/17 00:11:11;;;;;;;13.85;8.85;;;13.70;99.90;;;;;;4954925;28;20098;-73
2023/07/17 00:13:38;;;;;;;12.95;8.27;;;13.80;99.90;;;;;;4948858;28;20938;-73
2023/07/17 00:16:05;;;;;;;15.25;9.00;;;13.80;99.90;;;;;;4944909;28;20069;-73
2023/07/17 00:18:34;;;;;;;14.25;8.30;;;13.70;99.90;;;;;;4947773;28;20123;-75
2023/07/17 00:21:02;;;;;;;16.98;8.25;;;14.20;99.90;;;;;;4950654;28;20035;-72
2023/07/17 00:23:30;;;;;;;13.40;8.68;;;14.20;99.30;;;;;;4939550;28;20032;-73
2023/07/17 00:25:57;;;;;;;16.75;8.73;;;14.00;99.80;;;;;;4947406;28;20514;-73
2023/07/17 00:28:25;;;;;;;14.93;8.60;;;14.10;99.90;;;;;;4951718;28;20046;-73
2023/07/17 00:30:52;;;;;;;14.93;10.68;;;14.00;99.90;;;;;;4962428;28;20034;-72
2023/07/17 00:33:20;;;;;;;13.88;10.20;;;14.10;99.90;;;;;;4952189;28;20056;-73
2023/07/17 00:35:47;;;;;;;17.33;9.90;;;14.20;99.90;;;;;;4953581;28;20028;-72
2023/07/17 00:38:14;;;;;;;10.77;8.80;;;14.80;99.40;;;;;;4955263;28;20384;-72
2023/07/17 00:40:42;;;;;;;15.65;9.18;;;15.40;98.30;;;;;;4955443;28;20027;-72
2023/07/17 00:43:12;;;;;;;18.67;9.30;;;15.70;97.60;;;;;;4960472;28;20039;-72
2023/07/17 00:45:42;;;;;;;15.40;10.18;;;15.70;97.00;;;;;;4951347;28;20370;-71
2023/07/17 00:48:11;;;;;;;13.32;9.45;;;15.70;97.00;;;;;;4933673;28;20078;-72
2023/07/17 00:50:39;;;;;;;16.17;11.48;;;15.60;97.30;;;;;;4954339;28;20374;-72
2023/07/17 00:53:08;;;;;;;21.17;12.43;;;15.40;97.60;;;;;;4950277;28;20802;-71
2023/07/17 00:55:37;;;;;;;21.20;13.00;;;15.50;98.10;;;;;;4948769;28;20133;-72
2023/07/17 00:58:05;;;;;;;17.67;12.15;;;15.80;97.80;;;;;;4946457;28;20045;-72
2023/07/17 01:00:32;;;;;;;18.85;11.52;;;15.90;97.80;;;;;;4953907;28;20031;-72
2023/07/17 01:03:00;;;;;;;18.60;12.52;;;16.30;97.50;;;;;;4949014;28;20509;-73
2023/07/17 01:05:27;;;;;;;15.88;10.27;;;16.60;96.30;;;;;;4949030;28;20118;-73
2023/07/17 01:07:57;;;;;;;14.40;10.40;;;17.00;95.80;;;;;;4953879;28;20043;-71
2023/07/17 01:10:26;;;;;;;19.67;10.93;;;17.40;94.00;;;;;;4949813;28;20730;-72
2023/07/17 01:12:53;;;;;;;16.63;9.80;;;17.70;94.50;;;;;;4951290;28;20027;-73
2023/07/17 01:15:20;;;;;;;20.20;12.10;;;17.90;93.40;;;;;;4964612;28;20515;-72
2023/07/17 01:17:48;;;;;;;19.67;11.43;;;17.30;93.80;;;;;;4944223;28;20119;-72
2023/07/17 01:20:15;;;;;;;14.18;10.45;;;16.90;95.40;;;;;;4956412;28;20128;-72
2023/07/17 01:22:56;;;;;;;19.83;10.23;;;16.70;95.70;;;;;;4950748;28;20378;-73
2023/07/17 01:25:24;;;;;;;15.63;12.00;;;16.80;95.50;;;;;;4963695;28;20474;-73
2023/07/17 01:27:51;;;;;;;16.00;11.30;;;16.50;95.60;;;;;;4949283;28;20553;-73
2023/07/17 01:30:19;;;;;;;17.77;12.60;;;16.50;96.40;;;;;;4955594;28;20031;-73
2023/07/17 01:32:46;;;;;;;21.73;11.75;;;16.40;96.40;;;;;;4948197;28;20489;-74
2023/07/17 01:35:14;;;;;;;16.20;10.80;;;16.90;96.70;;;;;;4948867;28;20042;-73
2023/07/17 01:37:42;;;;;;;14.90;9.63;;;17.40;95.10;;;;;;4954474;28;20358;-72
2023/07/17 01:40:11;;;;;;;14.25;9.15;;;17.50;95.00;;;;;;4953779;28;20027;-71
2023/07/17 01:42:38;;;;;;;11.88;5.80;;;17.70;94.40;;;;;;4954373;28;20027;-73
2023/07/17 01:45:06;;;;;;;10.45;6.63;;;17.60;93.70;;;;;;4950605;28;20030;-73
2023/07/17 01:47:33;;;;;;;12.15;7.90;;;17.20;94.30;;;;;;4953075;28;20043;-73
2023/07/17 01:50:02;;;;;;;13.25;8.55;;;17.10;94.90;;;;;;4954578;28;20045;-73
2023/07/17 01:52:29;;;;;;;14.90;8.65;;;17.10;94.90;;;;;;4954810;28;20551;-72
2023/07/17 01:54:57;;;;;;;13.65;8.35;;;17.10;95.40;;;;;;4953553;28;20106;-73
2023/07/17 01:57:24;;;;;;;15.25;7.25;;;17.60;94.50;;;;;;4953767;28;20489;-73
2023/07/17 01:59:52;;;;;;;10.20;7.55;;;17.70;93.70;;;;;;4953937;28;20042;-73
2023/07/17 02:02:19;;;;;;;16.33;7.80;;;17.50;94.40;;;;;;4974471;28;20544;-73
2023/07/17 02:04:47;;;;;;;12.25;7.30;;;17.20;95.00;;;;;;4946074;28;20031;-73
2023/07/17 02:07:14;;;;;;;14.32;6.93;;;17.10;95.40;;;;;;4947994;28;20045;-72
2023/07/17 02:09:41;;;;;;;11.80;6.55;;;17.20;95.50;;;;;;4955306;28;20117;-72
2023/07/17 02:12:09;;;;;;;14.55;6.60;;;17.40;95.20;;;;;;4954085;28;20035;-72
2023/07/17 02:14:36;;;;;;;13.93;6.57;;;18.10;93.00;;;;;;4949147;28;20023;-72
2023/07/17 02:17:04;;;;;;;12.95;6.35;;;18.30;92.80;;;;;;4954730;28;20031;-72
2023/07/17 02:19:31;;;;;;;10.60;6.90;;;18.00;92.40;;;;;;4953011;28;20032;-71
2023/07/17 02:21:58;;;;;;;12.10;7.32;;;18.00;93.50;;;;;;4951158;28;20042;-71
2023/07/17 02:24:26;;;;;;;12.95;6.97;;;18.40;93.00;;;;;;4946471;28;20023;-72
2023/07/17 02:26:53;;;;;;;12.93;6.70;;;18.70;91.40;;;;;;4950770;28;20100;-73
2023/07/17 02:29:21;;;;;;;18.00;8.05;;;18.70;91.60;;;;;;4945704;28;20027;-72
2023/07/17 02:31:49;;;;;;;10.65;6.43;;;18.80;91.60;;;;;;4952638;28;20050;-73
2023/07/17 02:34:16;;;;;;;9.02;5.53;;;18.70;92.30;;;;;;4950673;28;20503;-73
2023/07/17 02:36:43;;;;;;;14.02;5.88;;;19.00;90.50;;;;;;4947862;28;20031;-73
2023/07/17 02:39:11;;;;;;;7.50;4.78;;;19.10;90.40;;;;;;4950086;28;20493;-72
2023/07/17 02:41:38;;;;;;;17.92;5.30;;;18.90;90.30;;;;;;4951650;28;20028;-72
2023/07/17 02:44:06;;;;;;;12.43;4.60;;;18.70;91.50;;;;;;4949985;28;20031;-72
2023/07/17 02:46:33;;;;;;;11.38;5.22;;;19.10;91.20;;;;;;4951032;28;20488;-72
2023/07/17 02:49:00;;;;;;;7.50;3.60;;;19.70;91.30;;;;;;4950030;28;20042;-72
2023/07/17 02:51:28;;;;;;;8.13;3.85;;;20.10;84.00;;;;;;4953153;28;20067;-72
2023/07/17 02:53:55;;;;;;;11.90;4.30;;;19.90;86.10;;;;;;4950270;28;20073;-72
2023/07/17 02:56:23;;;;;;;9.20;4.07;;;19.60;87.00;;;;;;4950499;28;20075;-72
2023/07/17 02:58:54;;;;;;;9.00;3.55;;;19.50;85.60;;;;;;4950786;28;20031;-73
2023/07/17 03:01:21;;;;;;;9.05;3.28;;;19.50;88.00;;;;;;4955175;28;20035;-73
2023/07/17 03:03:49;;;;;;;6.07;2.90;;;19.50;86.70;;;;;;4950038;28;20034;-73
2023/07/17 03:06:16;;;;;;;6.90;3.42;;;19.30;86.80;;;;;;4949220;28;20024;-72
2023/07/17 03:08:43;;;;;;;11.18;4.07;;;18.90;88.20;;;;;;4950120;28;20035;-73
2023/07/17 03:11:11;;;;;;;10.45;3.72;;;18.90;90.80;;;;;;4949451;28;20031;-72
2023/07/17 03:13:38;;;;;;;12.70;3.83;;;19.10;88.80;;;;;;4943722;28;20501;-71
2023/07/17 03:16:05;;;;;;;7.07;3.10;;;19.90;87.10;;;;;;4935563;28;20049;-72
2023/07/17 03:18:33;;;;;;;8.18;2.83;;;20.30;84.50;;;;;;4945844;28;20134;-72
2023/07/17 03:21:00;;;;;;;6.63;3.30;;;20.40;84.20;;;;;;4945324;28;20027;-73
2023/07/17 03:23:28;;;;;;;9.43;3.03;;;20.50;83.40;;;;;;4948417;28;20047;-73
2023/07/17 03:25:57;;;;;;;10.13;3.58;;;20.60;81.70;;;;;;4953280;28;20473;-72
2023/07/17 03:28:24;;;;;;;9.95;3.60;;;20.40;81.80;;;;;;4946890;28;20041;-71
2023/07/17 03:30:56;;;;;;;11.50;3.05;;;20.20;83.30;;;;;;4949002;28;20047;-70
2023/07/17 03:33:25;;;;;;;10.82;3.80;;;19.80;84.40;;;;;;4938926;28;20034;-71
2023/07/17 03:35:53;;;;;;;8.40;3.35;;;19.40;85.50;;;;;;4946245;28;20079;-73
2023/07/17 03:38:20;;;;;;;9.02;4.00;;;19.50;85.80;;;;;;4940478;28;20464;-72
2023/07/17 03:40:47;;;;;;;10.40;4.03;;;19.50;86.50;;;;;;4951595;28;20082;-72
2023/07/17 03:43:14;;;;;;;10.18;3.95;;;19.50;86.30;;;;;;4944680;28;20092;-73
2023/07/17 03:45:42;;;;;;;10.95;3.83;;;19.30;86.10;;;;;;4951498;28;20102;-72
2023/07/17 03:48:09;;;;;;;13.38;5.18;;;19.20;86.60;;;;;;4938873;28;20188;-72
2023/07/17 03:50:37;;;;;;;12.13;4.53;;;18.90;88.30;;;;;;4940708;28;20031;-73
2023/07/17 03:53:04;;;;;;;11.80;4.95;;;18.50;90.60;;;;;;4956475;28;20038;-73
2023/07/17 03:55:32;;;;;;;12.77;4.80;;;18.60;90.40;;;;;;4955740;28;20392;-73
2023/07/17 03:58:00;;;;;;;13.02;5.50;;;18.70;90.90;;;;;;4945189;28;20054;-73
2023/07/17 04:00:27;;;;;;;10.40;4.18;;;18.80;90.50;;;;;;4937738;28;20023;-72
2023/07/17 04:02:54;;;;;;;8.68;3.80;;;18.80;90.20;;;;;;4939626;28;20023;-72
2023/07/17 04:05:22;;;;;;;9.27;4.03;;;18.80;89.70;;;;;;4951046;28;20039;-73
2023/07/17 04:07:49;;;;;;;7.90;3.13;;;18.70;89.70;;;;;;4933387;28;20184;-72
2023/07/17 04:10:17;;;;;;;10.75;2.95;;;18.80;88.10;;;;;;4940500;28;20034;-73
2023/07/17 04:12:44;;;;;;;9.43;2.45;;;18.70;87.00;;;;;;4948540;28;20027;-72
2023/07/17 04:15:11;;;;;;;8.15;2.45;;;18.40;87.30;;;;;;4968269;28;20109;-73
2023/07/17 04:17:39;;;;;;;7.88;2.00;;;18.40;87.50;;;;;;4947128;28;20043;-74
2023/07/17 04:20:10;;;;;;;9.20;2.92;;;18.30;87.90;;;;;;4941150;28;20119;-70
2023/07/17 04:22:37;;;;;;;10.88;2.42;;;18.40;87.00;;;;;;4943283;28;20023;-72
2023/07/17 04:25:06;;;;;;;8.88;2.58;;;18.10;87.60;;;;;;4948294;28;20039;-73
2023/07/17 04:27:33;;;;;;;6.90;2.15;;;18.20;87.50;;;;;;4945576;28;20078;-74
2023/07/17 04:30:01;;;;;;;9.02;2.22;;;18.20;87.70;;;;;;4948349;28;20027;-74
2023/07/17 04:32:28;;;;;;;10.52;2.67;;;18.20;90.10;;;;;;4947203;28;20031;-74
2023/07/17 04:34:57;;;;;;;9.65;2.67;;;18.20;89.40;;;;;;4945467;28;20035;-73
2023/07/17 04:37:24;;;;;;;13.93;3.15;;;18.10;88.40;;;;;;4948147;28;20086;-74
2023/07/17 04:39:52;;;;;;;8.02;2.85;;;18.10;88.20;;;;;;4949074;28;20863;-74
2023/07/17 04:42:19;;;;;;;9.85;3.03;;;18.20;88.50;;;;;;4949300;28;20035;-74
2023/07/17 04:44:46;;;;;;;9.23;3.10;;;18.10;89.00;;;;;;4945211;28;20023;-74
2023/07/17 04:47:14;;;;;;;12.18;2.67;;;18.10;89.70;;;;;;4950527;28;20035;-73
2023/07/17 04:49:41;;;;;;;10.05;3.33;;;18.10;88.90;;;;;;4947269;28;20126;-73
2023/07/17 04:52:08;;;;;;;8.48;2.80;;;18.10;89.80;;;;;;4950300;28;20058;-74
2023/07/17 04:54:36;;;;;;;11.77;3.17;;;18.20;90.40;;;;;;4947961;28;20098;-72
2023/07/17 04:57:03;;;;;;;7.53;2.95;;;18.10;90.00;;;;;;4950037;28;20102;-73
2023/07/17 04:59:31;;;;;;;7.53;2.83;;;18.10;89.90;;;;;;4962645;28;20477;-74
2023/07/17 05:01:58;;;;;;;8.73;2.33;;;18.10;89.40;;;;;;4944953;28;20055;-73
2023/07/17 05:04:25;;;;;;;11.18;3.22;;;18.00;88.90;;;;;;4944988;28;20048;-74
2023/07/17 05:06:53;;;;;;;10.07;2.97;;;18.00;89.50;;;;;;4946272;28;20499;-73
2023/07/17 05:09:20;;;;;;;9.75;2.70;;;18.20;88.10;;;;;;4948773;28;20043;-73
2023/07/17 05:11:48;;;;;;;12.73;3.40;;;18.20;87.90;;;;;;4946555;28;20393;-73
2023/07/17 05:14:15;;;;;;;10.27;3.33;;;18.10;87.90;;;;;;4948617;28;20480;-74
2023/07/17 05:16:42;;;;;;;12.02;3.25;;;18.10;88.20;;;;;;4950253;28;20075;-75
2023/07/17 05:19:10;;;;;;;7.57;3.20;;;18.10;87.60;;;;;;4936086;29;20393;-74
2023/07/17 05:21:37;;;;;;;9.10;3.38;;;18.10;88.30;;;;;;4954936;28;20027;-73
2023/07/17 05:24:04;;;;;;;10.27;3.72;;;18.10;88.20;;;;;;4947859;28;20126;-72
2023/07/17 05:26:32;;;;;;;9.27;3.33;;;18.10;88.40;;;;;;4949739;28;20110;-76
2023/07/17 05:28:59;;;;;;;6.32;2.83;;;18.10;88.60;;;;;;4943178;28;20047;-74
2023/07/17 05:31:26;;;;;;;10.20;4.05;;;18.00;88.80;;;;;;4954672;28;20029;-75
2023/07/17 05:33:56;;;;;;;12.82;3.10;;;18.00;88.80;;;;;;4959347;28;21504;-72
2023/07/17 05:36:23;;;;;;;9.85;3.53;;;18.10;87.40;;;;;;4950857;28;20055;-72
2023/07/17 05:38:51;;;;;;;8.60;3.10;;;18.00;87.70;;;;;;4949417;28;20061;-73
2023/07/17 05:41:18;;;;;;;10.43;2.85;;;18.10;87.60;;;;;;4951162;28;20028;-71
2023/07/17 05:43:45;;;;;;;8.32;2.95;;;18.00;87.60;;;;;;4955171;28;20748;-72
2023/07/17 05:46:14;;;;;;;13.98;3.60;;;18.00;88.30;;;;;;4953422;28;20035;-73
2023/07/17 05:48:41;;;;;;;10.38;3.03;;;18.00;88.50;;;;;;4930882;28;20398;-72
2023/07/17 05:51:08;;;;;;;8.93;2.30;;;18.00;88.70;;;;;;4955996;28;20046;-73
2023/07/17 05:53:36;;;;;;;7.78;3.00;;;18.00;88.20;;;;;;4972709;28;20107;-72
2023/07/17 05:56:03;;;;;;;10.23;2.75;;;17.90;88.60;;;;;;4953427;28;20580;-72
2023/07/17 05:58:31;;;;;;;7.80;2.35;;;17.90;88.40;;;;;;4952006;28;20034;-72
2023/07/17 06:00:58;;;;;;;8.82;2.53;;;17.90;88.70;;;;;;4949999;28;20524;-72
2023/07/17 06:03:25;;;;;;;11.15;2.90;;;17.90;88.40;;;;;;4950465;28;20082;-73
2023/07/17 06:05:53;;;;;;;8.27;2.50;;;17.90;88.90;;;;;;4953610;28;20449;-74
2023/07/17 06:08:20;;;;;;;10.13;2.55;;;18.00;88.40;;;;;;4944345;28;20043;-73
2023/07/17 06:10:48;;;;;;;7.78;2.80;;;17.90;88.70;;;;;;4950208;28;20027;-73
2023/07/17 06:13:20;;;;;;;9.35;2.63;;;17.90;89.10;;;;;;4943921;28;20130;-73
2023/07/17 06:15:48;;;;;;;8.25;2.78;;;17.90;89.80;;;;;;4947987;28;20035;-73
2023/07/17 06:18:15;;;;;;;10.75;3.30;;;18.00;88.90;;;;;;4950622;28;20118;-72
2023/07/17 06:20:42;;;;;;;9.55;3.10;;;18.00;88.90;;;;;;4952538;28;20043;-73
2023/07/17 06:23:10;;;;;;;13.18;3.17;;;18.00;89.50;;;;;;4950017;28;20119;-73
2023/07/17 06:25:38;;;;;;;6.97;2.83;;;18.00;89.50;;;;;;4952203;28;20122;-73
2023/07/17 06:28:06;;;;;;;8.02;3.53;;;18.10;89.70;;;;;;4952946;28;20516;-72
2023/07/17 06:30:33;;;;;;;11.30;3.63;;;18.00;90.00;;;;;;4953776;28;20051;-72
2023/07/17 06:33:00;;;;;;;8.52;2.80;;;18.00;89.90;;;;;;4948014;28;20034;-72
2023/07/17 06:35:28;;;;;;;6.05;3.08;;;18.00;90.00;;;;;;4942233;28;20039;-72
2023/07/17 06:37:55;;;;;;;9.55;3.60;;;17.90;90.20;;;;;;4962593;28;20046;-71
2023/07/17 06:40:23;;;;;;;9.73;3.83;;;17.80;90.50;;;;;;4954802;28;20103;-72
2023/07/17 06:42:50;;;;;;;7.45;3.58;;;17.70;90.70;;;;;;4952429;28;20469;-74
2023/07/17 06:45:17;;;;;;;8.13;3.20;;;17.60;90.90;;;;;;4948165;28;20027;-73
2023/07/17 06:47:45;;;;;;;8.75;3.78;;;17.50;91.20;;;;;;4951387;28;20106;-72
2023/07/17 06:50:12;;;;;;;10.98;4.00;;;17.40;91.40;;;;;;4951902;28;20545;-72
2023/07/17 06:52:41;;;;;;;9.63;3.58;;;17.30;91.60;;;;;;4949919;28;20408;-71
2023/07/17 06:55:09;;;;;;;6.18;3.00;;;17.20;92.10;;;;;;4944633;28;20485;-72
2023/07/17 06:57:37;;;;;;;8.75;3.60;;;17.10;92.20;;;;;;4948188;28;20078;-72
2023/07/17 07:00:05;;;;;;;7.70;3.60;;;16.90;92.50;;;;;;4949383;28;20039;-72
2023/07/17 07:02:33;;;;;;;10.95;3.88;;;16.80;92.90;;;;;;4951635;28;20031;-73
2023/07/17 07:05:00;;;;;;;12.82;3.78;;;16.70;93.20;;;;;;4946356;28;20496;-74
2023/07/17 07:07:28;;;;;;;8.80;3.40;;;16.50;93.30;;;;;;4946683;28;20394;-72
2023/07/17 07:09:55;;;;;;;8.50;3.92;;;16.50;93.60;;;;;;4970672;28;20039;-74
2023/07/17 07:12:22;;;;;;;9.00;3.78;;;16.40;93.80;;;;;;4947348;28;20263;-72
2023/07/17 07:14:50;;;;;;;12.15;3.80;;;16.30;94.00;;;;;;4948185;28;20385;-73
2023/07/17 07:17:17;;;;;;;9.05;3.65;;;16.20;94.10;;;;;;4948734;28;20481;-74
2023/07/17 07:19:45;;;;;;;16.30;4.22;;;16.10;94.40;;;;;;4953253;28;20027;-73
2023/07/17 07:22:12;;;;;;;10.73;4.10;;;16.00;94.50;;;;;;4948351;28;20034;-72
2023/07/17 07:24:41;;;;;;;42.25;17.17;;;15.90;94.70;;;;;;4947609;28;20037;-73
2023/07/17 07:27:08;;;;;;;82.63;34.33;;;15.80;94.90;;;;;;4949923;28;20031;-72
2023/07/17 07:29:36;;;;;;;35.13;15.52;;;15.70;95.10;;;;;;4942176;28;20042;-73
2023/07/17 07:32:04;;;;;;;20.85;9.20;;;15.60;95.30;;;;;;4953314;28;20411;-71
2023/07/17 07:34:31;;;;;;;28.85;11.32;;;15.60;95.30;;;;;;4948179;28;20134;-71
2023/07/17 07:36:59;;;;;;;31.92;12.95;;;15.50;95.50;;;;;;4951177;28;20034;-71
2023/07/17 07:39:26;;;;;;;19.15;9.48;;;15.50;95.50;;;;;;4947220;28;20069;-71
2023/07/17 07:41:54;;;;;;;26.17;12.77;;;15.30;95.90;;;;;;4941805;28;20428;-71
2023/07/17 07:44:21;;;;;;;37.42;14.27;;;15.20;96.00;;;;;;4948521;28;20118;-71
2023/07/17 07:46:48;;;;;;;31.30;14.27;;;15.10;96.20;;;;;;4952324;28;20463;-70
2023/07/17 07:49:16;;;;;;;37.53;13.98;;;15.00;96.10;;;;;;4949357;28;20047;-71
2023/07/17 07:51:43;;;;;;;33.55;11.73;;;14.90;96.20;;;;;;4949139;28;20035;-71
2023/07/17 07:54:11;;;;;;;30.15;12.00;;;14.80;96.30;;;;;;4951804;28;20464;-71
2023/07/17 07:56:38;;;;;;;19.67;9.63;;;14.70;96.40;;;;;;4950950;28;20138;-72
2023/07/17 07:59:05;;;;;;;22.35;9.38;;;14.70;96.70;;;;;;4947753;28;20034;-73
2023/07/17 08:01:32;;;;;;;24.95;10.13;;;14.60;96.80;;;;;;4948141;28;20161;-72
2023/07/17 08:04:00;;;;;;;23.25;9.25;;;14.50;96.70;;;;;;4946402;28;20038;-72
2023/07/17 08:06:27;;;;;;;25.23;9.20;;;14.50;96.90;;;;;;4943446;28;20086;-71
2023/07/17 08:08:55;;;;;;;17.88;7.70;;;14.40;97.10;;;;;;4946865;28;20050;-72
2023/07/17 08:11:22;;;;;;;15.38;6.50;;;14.40;97.20;;;;;;4946449;28;20400;-72
2023/07/17 08:13:49;;;;;;;16.65;6.95;;;14.40;97.20;;;;;;4962018;28;20031;-72
2023/07/17 08:16:16;;;;;;;12.70;6.40;;;14.40;97.20;;;;;;4941820;28;20031;-71
2023/07/17 08:18:46;;;;;;;12.70;6.47;;;14.30;97.20;;;;;;4941844;28;20335;-72
2023/07/17 08:21:14;;;;;;;14.82;5.88;;;14.30;97.30;;;;;;4946009;28;20119;-72
2023/07/17 08:23:43;;;;;;;12.77;6.43;;;14.20;97.20;;;;;;4938748;28;20031;-72
2023/07/17 08:26:11;;;;;;;13.25;5.63;;;14.10;97.40;;;;;;4945349;28;20035;-72
2023/07/17 08:28:38;;;;;;;9.57;4.80;;;14.10;97.40;;;;;;4944850;28;20035;-72
2023/07/17 08:31:05;;;;;;;13.18;5.43;;;14.00;97.50;;;;;;4945625;28;20031;-72
2023/07/17 08:33:33;;;;;;;16.65;5.75;;;14.00;97.60;;;;;;4939555;28;20024;-71
2023/07/17 08:36:00;;;;;;;14.00;6.30;;;14.00;97.60;;;;;;4945032;28;20047;-73
2023/07/17 08:38:28;;;;;;;13.20;5.32;;;13.80;97.50;;;;;;4945260;28;20063;-72
2023/07/17 08:40:55;;;;;;;18.02;5.65;;;13.80;97.70;;;;;;4948867;28;20043;-72
2023/07/17 08:43:23;;;;;;;18.73;5.68;;;13.70;97.70;;;;;;4950482;28;20549;-71
2023/07/17 08:45:52;;;;;;;15.30;5.30;;;13.80;97.60;;;;;;4946603;28;20031;-72
2023/07/17 08:48:21;;;;;;;12.55;5.35;;;13.70;97.80;;;;;;4945830;28;20400;-72
2023/07/17 08:50:51;;;;;;;10.45;4.93;;;13.80;97.90;;;;;;4951470;28;20035;-71
2023/07/17 08:53:19;;;;;;;20.85;5.47;;;13.80;97.80;;;;;;4949484;28;20095;-72
2023/07/17 08:55:48;;;;;;;17.40;5.85;;;13.70;97.60;;;;;;4948062;28;20177;-71
2023/07/17 08:58:17;;;;;;;14.63;5.68;;;13.70;98.00;;;;;;4953246;28;20074;-71
2023/07/17 09:00:45;;;;;;;21.02;5.03;;;13.70;97.90;;;;;;4949050;28;20030;-71
2023/07/17 09:03:12;;;;;;;14.82;4.57;;;13.90;98.30;;;;;;4950399;28;20094;-71
2023/07/17 09:05:40;;;;;;;21.35;5.45;;;13.90;97.90;;;;;;4935041;28;20086;-71
2023/07/17 09:08:07;;;;;;;11.27;4.70;;;13.80;98.00;;;;;;4945800;28;20035;-72
2023/07/17 09:10:36;;;;;;;12.50;5.65;;;13.80;98.30;;;;;;4955221;28;20035;-71
2023/07/17 09:13:04;;;;;;;16.13;5.60;;;13.70;98.30;;;;;;4951852;28;20023;-72
2023/07/17 09:15:33;;;;;;;19.77;7.60;;;13.60;98.10;;;;;;4952228;28;20176;-70
2023/07/17 09:18:01;;;;;;;17.17;7.70;;;13.50;98.40;;;;;;4952221;28;20134;-71
2023/07/17 09:20:28;;;;;;;15.65;6.22;;;13.50;98.20;;;;;;4950943;28;20031;-71
2023/07/17 09:23:00;;;;;;;19.52;7.38;;;13.40;98.00;;;;;;4954682;28;20082;-70
2023/07/17 09:25:28;;;;;;;19.73;6.65;;;13.30;98.30;;;;;;4952376;28;20075;-70
2023/07/17 09:27:56;;;;;;;14.63;6.90;;;13.20;98.20;;;;;;4949090;28;20469;-71
2023/07/17 09:30:28;;;;;;;20.42;8.13;;;13.00;98.20;;;;;;4956742;28;20357;-71
2023/07/17 09:33:06;;;;;;;19.08;7.95;;;13.10;98.50;;;;;;4953309;28;20536;-70
2023/07/17 09:35:33;;;;;;;22.50;8.32;;;13.00;98.70;;;;;;4950259;28;20453;-70
2023/07/17 09:38:00;;;;;;;18.20;6.80;;;13.00;98.80;;;;;;4953599;28;20028;-72
2023/07/17 09:40:28;;;;;;;17.17;7.00;;;12.90;98.80;;;;;;4952550;28;20042;-71
2023/07/17 09:42:56;;;;;;;15.80;7.22;;;12.90;98.70;;;;;;4953103;28;20082;-70
2023/07/17 09:45:24;;;;;;;14.88;7.88;;;12.80;98.70;;;;;;4952151;28;20480;-71
2023/07/17 09:47:52;;;;;;;17.83;7.15;;;12.80;98.60;;;;;;4952559;28;20132;-71
2023/07/17 09:50:22;;;;;;;17.73;7.15;;;12.80;98.50;;;;;;4953591;28;20035;-69
2023/07/17 09:52:50;;;;;;;16.77;9.60;;;12.60;98.50;;;;;;4944552;28;20444;-72
2023/07/17 09:55:20;;;;;;;16.33;9.35;;;12.60;98.90;;;;;;4953278;28;20038;-71
2023/07/17 09:57:51;;;;;;;17.63;8.32;;;12.60;99.10;;;;;;4953830;28;20102;-71
2023/07/17 10:00:22;;;;;;;23.23;11.00;;;12.60;98.90;;;;;;4949109;28;20046;-70
2023/07/17 10:03:10;;;;;;;27.17;11.25;;;12.50;98.80;;;;;;4943803;28;20037;-71
2023/07/17 10:05:38;;;;;;;30.65;12.95;;;12.50;99.00;;;;;;4950283;28;20031;-71
2023/07/17 10:08:08;;;;;;;22.23;11.20;;;12.50;99.00;;;;;;4951583;28;20046;-70
2023/07/17 10:10:37;;;;;;;25.33;11.35;;;12.50;99.00;;;;;;4954427;28;20053;-70
2023/07/17 10:13:06;;;;;;;22.17;11.43;;;12.40;98.80;;;;;;4954576;28;20350;-70
2023/07/17 10:15:34;;;;;;;22.80;11.38;;;12.50;99.00;;;;;;4948980;28;20027;-69
2023/07/17 10:18:01;;;;;;;27.38;9.93;;;12.50;99.00;;;;;;4945938;28;20070;-71
2023/07/17 10:20:34;;;;;;;23.23;8.68;;;12.40;99.40;;;;;;4949361;28;20047;-71
2023/07/17 10:23:02;;;;;;;21.15;8.10;;;12.50;99.70;;;;;;4950681;28;20033;-71
2023/07/17 10:25:29;;;;;;;20.77;8.15;;;12.50;99.40;;;;;;4949989;28;20110;-71
2023/07/17 10:28:01;;;;;;;17.55;7.88;;;12.40;99.10;;;;;;4950119;28;20444;-70
2023/07/17 10:30:35;;;;;;;21.10;7.95;;;12.40;99.10;;;;;;4952575;28;20038;-70
2023/07/17 10:33:17;;;;;;;19.13;8.32;;;12.30;99.10;;;;;;4950413;28;20042;-70
2023/07/17 10:35:51;;;;;;;20.63;6.95;;;12.30;99.40;;;;;;4950262;28;20054;-70
2023/07/17 10:38:26;;;;;;;15.00;6.95;;;12.40;99.80;;;;;;4948355;28;20066;-70
2023/07/17 10:41:15;;;;;;;18.75;6.55;;;12.40;99.60;;;;;;4952008;28;20038;-70
2023/07/17 10:43:54;;;;;;;13.13;5.90;;;12.40;99.90;;;;;;4949908;28;20103;-71
2023/07/17 10:46:29;;;;;;;17.42;5.72;;;12.40;99.80;;;;;;4953428;28;20389;-70
2023/07/17 10:49:08;;;;;;;15.48;6.13;;;12.30;99.70;;;;;;4948013;28;20134;-71
2023/07/17 10:52:02;;;;;;;26.48;7.20;;;12.30;99.60;;;;;;4953372;28;20028;-71
2023/07/17 10:54:29;;;;;;;20.50;6.93;;;12.30;99.50;;;;;;4941390;28;20046;-70
2023/07/17 10:56:57;;;;;;;20.45;7.65;;;12.20;99.50;;;;;;4947218;28;20059;-71
2023/07/17 10:59:26;;;;;;;24.48;7.20;;;12.10;99.50;;;;;;4954503;28;20031;-70
2023/07/17 11:02:02;;;;;;;16.92;7.53;;;12.10;99.50;;;;;;4953743;28;20038;-70
2023/07/17 11:04:29;;;;;;;18.42;7.43;;;12.10;99.40;;;;;;4945761;28;20030;-71
2023/07/17 11:07:09;;;;;;;19.85;7.53;;;12.10;99.40;;;;;;4950263;28;20113;-72
2023/07/17 11:09:37;;;;;;;14.30;7.20;;;12.00;99.50;;;;;;4946249;28;20066;-71
2023/07/17 11:12:06;;;;;;;21.85;8.23;;;12.00;99.50;;;;;;4937499;28;20093;-71
2023/07/17 11:14:33;;;;;;;21.30;7.20;;;12.00;99.70;;;;;;4947302;28;20121;-71
2023/07/17 11:17:00;;;;;;;19.17;7.53;;;12.00;99.70;;;;;;4945725;28;20038;-71
2023/07/17 11:19:28;;;;;;;19.83;7.40;;;12.00;99.80;;;;;;4952682;28;20030;-70
2023/07/17 11:21:56;;;;;;;18.08;7.38;;;12.00;99.60;;;;;;4952617;28;20453;-69
2023/07/17 11:24:24;;;;;;;19.67;7.57;;;12.00;99.90;;;;;;4945714;28;20123;-70
2023/07/17 11:26:53;;;;;;;16.10;7.45;;;12.00;99.70;;;;;;4949086;28;20019;-71
2023/07/17 11:29:22;;;;;;;18.15;7.82;;;12.00;99.80;;;;;;4948449;28;20031;-71
2023/07/17 11:31:59;;;;;;;16.48;8.23;;;12.10;99.90;;;;;;4951775;28;20131;-72
2023/07/17 11:34:27;;;;;;;19.92;8.55;;;12.20;99.90;;;;;;4949698;28;20027;-70
2023/07/17 11:36:54;;;;;;;22.17;9.10;;;12.20;99.90;;;;;;4949122;28;20035;-69
2023/07/17 11:39:31;;;;;;;21.45;8.85;;;12.30;99.90;;;;;;4950334;28;20039;-70
2023/07/17 11:41:59;;;;;;;18.83;8.63;;;12.30;99.90;;;;;;4950371;28;20118;-71
2023/07/17 11:44:33;;;;;;;16.98;7.00;;;12.40;99.90;;;;;;4948296;28;20441;-70
2023/07/17 11:47:06;;;;;;;19.55;7.55;;;12.40;99.90;;;;;;4948972;28;20045;-71
2023/07/17 11:49:39;;;;;;;20.20;8.30;;;12.50;99.90;;;;;;4945503;28;20103;-71
2023/07/17 11:52:18;;;;;;;18.65;7.78;;;12.50;99.90;;;;;;4948862;28;20042;-71
2023/07/17 11:54:45;;;;;;;20.23;7.80;;;12.60;99.90;;;;;;4947473;28;20028;-71
2023/07/17 11:57:12;;;;;;;20.50;9.15;;;12.60;99.80;;;;;;4947512;28;20381;-72
2023/07/17 11:59:48;;;;;;;21.50;9.13;;;12.60;99.70;;;;;;4942084;28;20747;-72
2023/07/17 12:02:16;;;;;;;20.95;9.05;;;12.60;99.50;;;;;;4943426;28;20433;-70
2023/07/17 12:04:43;;;;;;;21.08;8.93;;;12.60;99.50;;;;;;4951450;28;20034;-71
2023/07/17 12:07:20;;;;;;;18.67;9.45;;;12.70;99.40;;;;;;4945339;28;20508;-70
2023/07/17 12:09:49;;;;;;;25.05;9.75;;;12.60;99.50;;;;;;4947888;28;20511;-70
2023/07/17 12:12:17;;;;;;;22.77;10.38;;;12.60;99.40;;;;;;4950203;28;20138;-71
2023/07/17 12:14:44;;;;;;;25.38;13.05;;;12.60;99.40;;;;;;4948950;28;20597;-71
2023/07/17 12:17:12;;;;;;;36.65;17.30;;;12.60;99.40;;;;;;4946932;28;20035;-71
2023/07/17 12:19:40;;;;;;;31.60;16.80;;;12.60;99.50;;;;;;4945215;28;20078;-70
2023/07/17 12:22:07;;;;;;;32.33;17.70;;;12.60;99.50;;;;;;4946329;28;21404;-71
2023/07/17 12:24:35;;;;;;;34.53;16.00;;;12.50;99.50;;;;;;4948076;28;20169;-70
2023/07/17 12:27:02;;;;;;;25.60;14.32;;;12.50;99.60;;;;;;4952263;28;20020;-70
2023/07/17 12:29:29;;;;;;;33.60;15.90;;;12.50;99.70;;;;;;4950533;28;20397;-70
2023/07/17 12:31:57;;;;;;;27.77;13.93;;;12.50;99.90;;;;;;4952974;28;20031;-71
2023/07/17 12:34:24;;;;;;;28.13;13.70;;;12.60;99.80;;;;;;4954005;28;21234;-71
2023/07/17 12:36:51;;;;;;;26.25;13.13;;;12.50;99.80;;;;;;4953490;28;20082;-71
2023/07/17 12:39:22;;;;;;;29.73;12.73;;;12.50;99.80;;;;;;4950307;28;20043;-72
2023/07/17 12:41:49;;;;;;;25.98;13.77;;;12.50;99.90;;;;;;4958504;28;20035;-71
2023/07/17 12:44:17;;;;;;;33.13;14.10;;;12.40;99.90;;;;;;4951142;28;20126;-71